Main page
METAR-TAF:

METAR-TAF

Airports :

Pulkovo Airport

Saint Petersburg, Russia

latitude: 59-58N, longitude: 030-18E, elevation: 4 m

Current weather observation

The report was made 42 minutes ago, at 22:30 UTC
Wind 2 kt from the Southwest
Temperature 12°C
Humidity 94%
Pressure 1026 hPa
Visibility: 8000 m
Shallow fog

METAR: ULLI 092230Z 23001MPS 8000 MIFG NSC 12/11 Q1026 R10R/090060 NOSIG

Time: 02:12 (23:12 UTC)

Forecast

The report was made 3 hours and 17 minutes ago, at 19:55 UTC
Forecast valid from 09 at 21 UTC to 10 at 21 UTC
Wind 2 kt from variable directions
Visibility: 6000 m
Temporary
from 09 at 21 UTC to 10 at 03 UTC
Visibility: 0300 m
fog
Temporary
from 10 at 06 UTC to 10 at 15 UTC
Wind 8 kt from the West with gusts up to 17 kt

TAF: ULLI 091955Z 0921/1021 VRB01MPS 6000 NSC TEMPO 0921/1003 0300 FG TEMPO 1006/1015 26004G09MPS

Weather observations and forecasts of more than 4000 airports (METAR and TAF reports).

The available stations are represented by yellow and red dots on the map.

Hover mouse over dot to see the name of the station.

Then click to see weather observations and forecasts.

To change the map : click on the green buttons with a black cross to zoom in, on the green button with a dash to zoom out, or on the green arrows for adjacent maps.


METAR-TAF: